createdAt,value
2018-01-29T00:01:56.888Z,2.60
2018-01-29T00:04:24.342Z,2.67
2018-01-29T00:06:51.791Z,3.30
2018-01-29T00:09:19.258Z,3.00
2018-01-29T00:11:46.710Z,2.37
2018-01-29T00:14:14.172Z,2.85
2018-01-29T00:16:41.857Z,3.20
2018-01-29T00:19:10.073Z,2.50
2018-01-29T00:21:37.942Z,3.00
2018-01-29T00:24:05.390Z,2.70
2018-01-29T00:26:32.854Z,3.37
2018-01-29T00:29:00.318Z,3.25
2018-01-29T00:31:27.833Z,2.42
2018-01-29T00:33:55.285Z,3.30
2018-01-29T00:36:23.504Z,2.87
2018-01-29T00:38:51.735Z,3.15
2018-01-29T00:41:19.952Z,3.65
2018-01-29T00:43:47.408Z,2.78
2018-01-29T00:46:14.861Z,2.95
2018-01-29T00:48:42.322Z,3.97
2018-01-29T00:51:09.769Z,3.55
2018-01-29T00:53:37.229Z,2.50
2018-01-29T00:56:04.711Z,2.67
2018-01-29T00:58:32.176Z,2.97
2018-01-29T01:00:59.642Z,3.55
2018-01-29T01:03:27.090Z,2.80
2018-01-29T01:05:54.545Z,3.00
2018-01-29T01:08:21.998Z,2.65
2018-01-29T01:10:49.454Z,3.67
2018-01-29T01:13:16.920Z,2.70
2018-01-29T01:15:44.370Z,2.58
2018-01-29T01:18:11.826Z,2.50
2018-01-29T01:20:39.682Z,3.10
2018-01-29T01:23:07.120Z,2.53
2018-01-29T01:25:34.572Z,2.90
2018-01-29T01:28:02.031Z,2.97
2018-01-29T01:30:29.504Z,2.83
2018-01-29T01:32:56.962Z,3.10
2018-01-29T01:35:24.426Z,2.72
2018-01-29T01:37:51.880Z,2.72
2018-01-29T01:40:19.336Z,2.80
2018-01-29T01:42:46.798Z,2.53
2018-01-29T01:45:14.248Z,3.08
2018-01-29T01:47:41.697Z,3.58
2018-01-29T01:50:09.989Z,8.23
2018-01-29T01:52:37.447Z,8.32
2018-01-29T01:55:04.914Z,5.10
2018-01-29T01:57:32.374Z,3.45
2018-01-29T01:59:59.827Z,3.08
2018-01-29T02:02:27.290Z,3.20
2018-01-29T02:04:54.756Z,2.92
2018-01-29T02:07:22.988Z,2.90
2018-01-29T02:09:50.425Z,3.20
2018-01-29T02:12:17.887Z,2.60
2018-01-29T02:14:45.339Z,2.83
2018-01-29T02:17:12.791Z,2.97
2018-01-29T02:19:40.241Z,3.00
2018-01-29T02:22:07.699Z,2.53
2018-01-29T02:24:35.154Z,3.05
2018-01-29T02:27:02.625Z,2.87
2018-01-29T02:29:30.072Z,3.47
2018-01-29T02:31:57.538Z,3.30
2018-01-29T02:34:24.988Z,3.05
2018-01-29T02:36:52.448Z,3.08
2018-01-29T02:39:19.892Z,3.60
2018-01-29T02:41:47.376Z,3.42
2018-01-29T02:44:14.810Z,2.87
2018-01-29T02:46:42.274Z,3.62
2018-01-29T02:49:09.730Z,4.30
2018-01-29T02:51:37.180Z,3.10
2018-01-29T02:54:04.634Z,3.70
2018-01-29T02:56:32.088Z,3.97
2018-01-29T02:58:59.574Z,3.00
2018-01-29T03:01:27.029Z,3.05
2018-01-29T03:03:54.481Z,3.80
2018-01-29T03:06:21.935Z,3.45
2018-01-29T03:08:50.158Z,2.85
2018-01-29T03:11:17.618Z,3.12
2018-01-29T03:13:45.049Z,2.72
2018-01-29T03:16:12.517Z,2.80
2018-01-29T03:18:40.384Z,3.10
2018-01-29T03:21:08.588Z,3.40
2018-01-29T03:23:36.796Z,2.90
2018-01-29T03:26:04.250Z,2.92
2018-01-29T03:28:31.702Z,2.62
2018-01-29T03:30:59.178Z,3.05
2018-01-29T03:33:26.649Z,2.87
2018-01-29T03:35:54.109Z,2.95
2018-01-29T03:38:21.582Z,3.20
2018-01-29T03:40:49.813Z,4.53
2018-01-29T03:43:17.262Z,6.55
2018-01-29T03:45:44.720Z,4.55
2018-01-29T03:48:12.194Z,4.12
2018-01-29T03:50:39.649Z,3.37
2018-01-29T03:53:07.100Z,3.60
2018-01-29T03:55:34.547Z,2.80
2018-01-29T03:58:01.994Z,3.60
2018-01-29T04:00:29.433Z,4.22
2018-01-29T04:02:56.890Z,3.20
2018-01-29T04:05:24.338Z,3.30
2018-01-29T04:07:52.554Z,3.17
2018-01-29T04:10:20.000Z,3.70
2018-01-29T04:12:47.454Z,3.35
2018-01-29T04:15:14.895Z,2.45
2018-01-29T04:17:42.745Z,3.08
2018-01-29T04:20:10.959Z,3.00
2018-01-29T04:22:38.404Z,3.30
2018-01-29T04:25:05.864Z,2.70
2018-01-29T04:27:33.318Z,3.95
2018-01-29T04:30:00.778Z,4.70
2018-01-29T04:32:28.437Z,4.40
2018-01-29T04:34:56.612Z,4.15
2018-01-29T04:37:24.056Z,4.10
2018-01-29T04:39:51.510Z,4.20
2018-01-29T04:42:18.993Z,5.90
2018-01-29T04:44:46.432Z,4.93
2018-01-29T04:47:13.895Z,4.60
2018-01-29T04:49:41.344Z,4.90
2018-01-29T04:52:08.789Z,4.05
2018-01-29T04:54:36.239Z,4.37
2018-01-29T04:57:04.464Z,4.85
2018-01-29T04:59:31.910Z,4.60
2018-01-29T05:01:59.358Z,4.55
2018-01-29T05:04:26.816Z,4.25
2018-01-29T05:06:54.283Z,4.00
2018-01-29T05:09:21.711Z,4.10
2018-01-29T05:11:49.161Z,3.60
2018-01-29T05:14:16.605Z,4.32
2018-01-29T05:16:44.822Z,3.53
2018-01-29T05:19:12.261Z,3.30
2018-01-29T05:21:39.716Z,3.62
2018-01-29T05:24:07.557Z,3.15
2018-01-29T05:26:35.781Z,3.53
2018-01-29T05:29:03.234Z,3.70
2018-01-29T05:31:30.684Z,2.87
2018-01-29T05:33:58.137Z,3.70
2018-01-29T05:36:26.392Z,4.00
2018-01-29T05:38:55.302Z,3.75
2018-01-29T05:41:22.757Z,3.92
2018-01-29T05:43:50.206Z,3.25
2018-01-29T05:46:17.673Z,4.25
2018-01-29T05:48:45.127Z,6.90
2018-01-29T05:51:12.574Z,5.43
2018-01-29T05:53:40.026Z,4.80
2018-01-29T05:56:07.471Z,4.87
2018-01-29T05:58:35.677Z,5.30
2018-01-29T06:01:03.127Z,4.70
2018-01-29T06:03:30.578Z,4.50
2018-01-29T06:05:58.045Z,4.97
2018-01-29T06:08:25.902Z,5.70
2018-01-29T06:10:53.343Z,5.18
2018-01-29T06:13:20.811Z,5.60
2018-01-29T06:15:48.284Z,5.15
2018-01-29T06:18:15.732Z,6.03
2018-01-29T06:20:43.172Z,5.57
2018-01-29T06:23:10.629Z,6.43
2018-01-29T06:25:38.097Z,5.60
2018-01-29T06:28:05.573Z,5.68
2018-01-29T06:30:33.017Z,5.03
2018-01-29T06:33:00.465Z,6.30
2018-01-29T06:35:27.901Z,4.80
2018-01-29T06:37:56.126Z,4.20
2018-01-29T06:40:24.342Z,3.83
2018-01-29T06:42:51.796Z,7.97
2018-01-29T06:45:20.007Z,5.03
2018-01-29T06:47:47.452Z,8.50
2018-01-29T06:50:15.680Z,17.65
2018-01-29T06:52:43.141Z,15.85
2018-01-29T06:55:10.595Z,16.60
2018-01-29T06:57:38.066Z,11.60
2018-01-29T07:00:06.279Z,14.35
2018-01-29T07:02:33.746Z,32.20
2018-01-29T07:05:01.321Z,47.75
2018-01-29T07:07:28.769Z,24.65
2018-01-29T07:09:56.226Z,34.22
2018-01-29T07:12:23.704Z,15.45
2018-01-29T07:14:51.142Z,16.50
2018-01-29T07:17:18.583Z,13.65
2018-01-29T07:19:46.053Z,11.85
2018-01-29T07:22:13.501Z,7.50
2018-01-29T07:24:40.953Z,5.90
2018-01-29T07:27:08.408Z,6.75
2018-01-29T07:29:35.866Z,9.10
2018-01-29T07:32:03.342Z,10.50
2018-01-29T07:34:30.805Z,8.52
2018-01-29T07:36:58.257Z,8.55
2018-01-29T07:39:25.721Z,11.20
2018-01-29T07:41:53.167Z,8.90
2018-01-29T07:44:20.654Z,10.57
2018-01-29T07:46:48.121Z,15.68
2018-01-29T07:49:16.376Z,6.43
2018-01-29T07:51:43.823Z,4.72
2018-01-29T07:54:11.292Z,15.70
2018-01-29T07:56:38.746Z,7.28
2018-01-29T07:59:06.216Z,4.18
2018-01-29T08:01:33.668Z,3.85
2018-01-29T08:04:01.140Z,4.93
2018-01-29T08:06:28.597Z,4.95
2018-01-29T08:08:56.855Z,7.80
2018-01-29T08:11:24.316Z,8.02
2018-01-29T08:13:51.776Z,4.82
2018-01-29T08:16:20.011Z,3.80
2018-01-29T08:18:47.480Z,4.20
2018-01-29T08:21:14.986Z,4.10
2018-01-29T08:23:42.457Z,5.33
2018-01-29T08:26:09.907Z,3.67
2018-01-29T08:28:37.367Z,3.10
2018-01-29T08:31:04.819Z,3.60
2018-01-29T08:33:32.286Z,5.30
2018-01-29T08:35:59.755Z,5.70
2018-01-29T08:38:27.232Z,6.90
2018-01-29T08:40:54.691Z,5.90
2018-01-29T08:43:22.159Z,4.97
2018-01-29T08:45:49.609Z,4.50
2018-01-29T08:48:17.083Z,3.60
2018-01-29T08:50:44.547Z,3.77
2018-01-29T08:53:12.018Z,3.80
2018-01-29T08:55:40.245Z,3.23
2018-01-29T08:58:07.716Z,3.10
2018-01-29T09:00:35.572Z,3.07
2018-01-29T09:03:03.031Z,3.37
2018-01-29T09:05:30.497Z,3.40
2018-01-29T09:07:58.020Z,3.40
2018-01-29T09:10:25.476Z,3.33
2018-01-29T09:12:52.929Z,3.30
2018-01-29T09:15:20.383Z,3.73
2018-01-29T09:17:47.831Z,3.97
2018-01-29T09:20:15.288Z,3.83
2018-01-29T09:22:42.754Z,4.10
2018-01-29T09:25:10.232Z,3.70
2018-01-29T09:27:37.679Z,3.93
2018-01-29T09:30:05.154Z,5.30
2018-01-29T09:32:32.619Z,3.00
2018-01-29T09:35:00.085Z,2.23
2018-01-29T09:37:27.538Z,2.47
2018-01-29T09:39:55.006Z,1.93
2018-01-29T09:42:22.484Z,1.77
2018-01-29T09:44:50.699Z,2.03
2018-01-29T09:47:18.166Z,2.33
2018-01-29T09:49:45.631Z,2.03
2018-01-29T09:52:13.085Z,1.40
2018-01-29T09:54:40.580Z,4.30
2018-01-29T09:57:08.422Z,2.10
2018-01-29T09:59:35.896Z,1.40
2018-01-29T10:02:03.351Z,2.10
2018-01-29T10:04:30.819Z,3.23
2018-01-29T10:06:58.277Z,1.77
2018-01-29T10:09:26.497Z,4.17
2018-01-29T10:11:53.949Z,2.70
2018-01-29T10:14:21.402Z,3.90
2018-01-29T10:16:48.849Z,1.27
2018-01-29T10:19:16.312Z,1.40
2018-01-29T10:21:43.756Z,1.20
2018-01-29T10:24:11.231Z,1.00
2018-01-29T10:26:38.673Z,1.30
2018-01-29T10:29:06.141Z,1.73
2018-01-29T10:31:33.592Z,1.07
2018-01-29T10:34:01.056Z,0.93
2018-01-29T10:36:28.642Z,1.00
2018-01-29T10:38:56.096Z,1.10
2018-01-29T10:41:23.546Z,0.93
2018-01-29T10:43:51.015Z,1.10
2018-01-29T10:46:18.460Z,1.40
2018-01-29T10:48:45.919Z,1.20
2018-01-29T10:51:13.380Z,0.90
2018-01-29T10:53:41.230Z,1.00
2018-01-29T10:56:08.670Z,1.20
2018-01-29T10:58:36.112Z,1.43
2018-01-29T11:01:09.205Z,1.07
2018-01-29T11:03:36.700Z,2.10
2018-01-29T11:06:04.156Z,2.30
2018-01-29T11:08:32.146Z,1.10
2018-01-29T11:10:59.605Z,2.13
2018-01-29T11:13:27.053Z,0.93
2018-01-29T11:15:54.502Z,1.17
2018-01-29T11:18:21.958Z,5.70
2018-01-29T11:20:49.417Z,2.60
2018-01-29T11:23:16.883Z,2.93
2018-01-29T11:25:44.333Z,2.90
2018-01-29T11:28:11.781Z,1.83
2018-01-29T11:30:39.225Z,1.07
2018-01-29T11:33:06.675Z,1.20
2018-01-29T11:35:34.128Z,1.90
2018-01-29T11:38:01.602Z,0.73
2018-01-29T11:40:29.045Z,1.10
2018-01-29T11:42:56.498Z,0.80
2018-01-29T11:45:23.940Z,1.20
2018-01-29T11:47:51.400Z,1.03
2018-01-29T11:50:18.844Z,0.90
2018-01-29T11:52:46.288Z,0.90
2018-01-29T11:55:14.522Z,2.03
2018-01-29T11:57:41.981Z,0.80
2018-01-29T12:00:09.429Z,0.90
2018-01-29T12:02:36.885Z,1.00
2018-01-29T12:05:04.332Z,0.80
2018-01-29T12:07:31.776Z,1.37
2018-01-29T12:09:59.229Z,0.80
2018-01-29T12:12:26.684Z,1.23
2018-01-29T12:14:54.136Z,2.03
2018-01-29T12:17:21.592Z,1.77
2018-01-29T12:19:49.058Z,2.23
2018-01-29T12:22:16.502Z,1.00
2018-01-29T12:24:43.966Z,1.00
2018-01-29T12:27:11.422Z,1.00
2018-01-29T12:29:38.881Z,1.00
2018-01-29T12:32:06.355Z,0.93
2018-01-29T12:34:33.818Z,1.17
2018-01-29T12:37:01.261Z,1.20
2018-01-29T12:39:28.720Z,0.80
2018-01-29T12:41:56.170Z,1.10
2018-01-29T12:44:23.629Z,1.17
2018-01-29T12:46:51.097Z,0.80
2018-01-29T12:49:18.547Z,1.13
2018-01-29T12:51:45.989Z,0.90
2018-01-29T12:54:13.454Z,1.20
2018-01-29T12:56:40.916Z,1.40
2018-01-29T12:59:08.372Z,1.47
2018-01-29T13:01:35.813Z,1.40
2018-01-29T13:04:03.271Z,1.80
2018-01-29T13:06:30.726Z,1.40
2018-01-29T13:08:58.184Z,1.60
2018-01-29T13:11:25.642Z,1.50
2018-01-29T13:13:53.094Z,1.33
2018-01-29T13:16:20.540Z,1.30
2018-01-29T13:18:47.985Z,1.43
2018-01-29T13:21:16.234Z,1.30
2018-01-29T13:23:43.676Z,1.50
2018-01-29T13:26:11.151Z,1.30
2018-01-29T13:28:38.584Z,1.80
2018-01-29T13:31:06.030Z,1.70
2018-01-29T13:33:33.490Z,1.70
2018-01-29T13:36:00.951Z,1.87
2018-01-29T13:38:29.187Z,2.40
2018-01-29T13:40:56.646Z,1.83
2018-01-29T13:43:24.871Z,2.27
2018-01-29T13:45:52.317Z,2.77
2018-01-29T13:48:19.770Z,2.40
2018-01-29T13:50:47.219Z,1.80
2018-01-29T13:53:14.686Z,1.73
2018-01-29T13:55:42.132Z,1.63
2018-01-29T13:58:09.595Z,1.83
2018-01-29T14:00:37.058Z,1.90
2018-01-29T14:03:04.495Z,1.73
2018-01-29T14:05:31.965Z,1.70
2018-01-29T14:07:59.440Z,1.70
2018-01-29T14:10:26.880Z,1.30
2018-01-29T14:12:54.344Z,1.47
2018-01-29T14:15:21.805Z,1.20
2018-01-29T14:17:49.247Z,1.50
2018-01-29T14:20:16.701Z,0.90
2018-01-29T14:22:44.164Z,1.03
2018-01-29T14:25:11.612Z,1.10
2018-01-29T14:27:39.070Z,1.10
2018-01-29T14:30:06.534Z,1.00
2018-01-29T14:32:33.988Z,1.00
2018-01-29T14:35:01.442Z,0.90
2018-01-29T14:37:28.881Z,0.90
2018-01-29T14:39:56.348Z,1.00
2018-01-29T14:42:23.796Z,0.80
2018-01-29T14:44:51.258Z,1.00
2018-01-29T14:47:18.723Z,0.93
2018-01-29T14:49:46.172Z,1.03
2018-01-29T14:52:13.639Z,0.90
2018-01-29T14:54:41.073Z,1.10
2018-01-29T14:57:08.542Z,1.07
2018-01-29T14:59:35.992Z,1.00
2018-01-29T15:02:03.457Z,0.90
2018-01-29T15:04:30.918Z,0.97
2018-01-29T15:06:58.366Z,0.83
2018-01-29T15:09:25.814Z,1.20
2018-01-29T15:11:53.261Z,0.93
2018-01-29T15:14:20.718Z,1.13
2018-01-29T15:16:48.159Z,1.07
2018-01-29T15:19:16.388Z,0.80
2018-01-29T15:21:43.844Z,1.20
2018-01-29T15:24:11.285Z,1.00
2018-01-29T15:26:38.745Z,1.90
2018-01-29T15:29:06.213Z,1.33
2018-01-29T15:31:33.670Z,1.30
2018-01-29T15:34:01.117Z,1.03
2018-01-29T15:36:28.576Z,1.40
2018-01-29T15:38:56.021Z,1.43
2018-01-29T15:41:23.466Z,1.60
2018-01-29T15:43:51.338Z,2.43
2018-01-29T15:46:18.798Z,3.27
2018-01-29T15:48:46.237Z,2.40
2018-01-29T15:51:13.707Z,1.50
2018-01-29T15:53:41.154Z,1.77
2018-01-29T15:56:08.618Z,1.70
2018-01-29T15:58:36.069Z,2.00
2018-01-29T16:01:03.518Z,1.50
2018-01-29T16:03:30.957Z,1.20
2018-01-29T16:05:59.192Z,1.20
2018-01-29T16:08:26.654Z,1.50
2018-01-29T16:10:54.126Z,5.50
2018-01-29T16:13:21.572Z,2.07
2018-01-29T16:15:49.029Z,3.93
2018-01-29T16:18:16.490Z,11.73
2018-01-29T16:20:43.932Z,16.70
2018-01-29T16:23:11.399Z,12.07
2018-01-29T16:25:38.849Z,9.50
2018-01-29T16:28:06.311Z,15.70
2018-01-29T16:30:33.789Z,11.40
2018-01-29T16:33:02.837Z,13.23
2018-01-29T16:35:30.298Z,12.60
2018-01-29T16:37:57.766Z,8.87
2018-01-29T16:40:25.215Z,11.07
2018-01-29T16:42:52.679Z,9.17
2018-01-29T16:45:20.135Z,3.90
2018-01-29T16:47:48.042Z,7.63
2018-01-29T16:50:16.257Z,4.93
2018-01-29T16:52:43.708Z,3.63
2018-01-29T16:55:11.175Z,4.50
2018-01-29T16:57:39.391Z,3.30
2018-01-29T17:00:07.617Z,6.10
2018-01-29T17:02:35.090Z,6.70
2018-01-29T17:05:02.557Z,13.33
2018-01-29T17:07:30.021Z,10.20
2018-01-29T17:09:57.491Z,12.37
2018-01-29T17:12:25.723Z,13.77
2018-01-29T17:14:53.239Z,19.73
2018-01-29T17:17:21.466Z,30.53
2018-01-29T17:19:48.926Z,31.40
2018-01-29T17:22:16.396Z,41.83
2018-01-29T17:24:43.909Z,55.77
2018-01-29T17:27:11.387Z,26.80
2018-01-29T17:29:38.852Z,19.20
2018-01-29T17:32:06.312Z,9.70
2018-01-29T17:34:33.821Z,11.53
2018-01-29T17:37:02.029Z,8.20
2018-01-29T17:39:29.497Z,9.70
2018-01-29T17:41:57.009Z,3.50
2018-01-29T17:44:24.419Z,5.03
2018-01-29T17:46:51.906Z,5.67
2018-01-29T17:49:19.408Z,2.60
2018-01-29T17:51:47.645Z,3.03
2018-01-29T17:54:15.512Z,3.50
2018-01-29T17:56:43.791Z,1.53
2018-01-29T17:59:12.060Z,9.50
2018-01-29T18:01:39.500Z,6.13
2018-01-29T18:04:06.963Z,6.57
2018-01-29T18:06:34.599Z,3.10
2018-01-29T18:09:02.083Z,3.90
2018-01-29T18:11:29.538Z,3.07
2018-01-29T18:13:57.766Z,3.20
2018-01-29T18:16:25.211Z,2.90
2018-01-29T18:18:52.705Z,3.10
2018-01-29T18:21:20.169Z,2.50
2018-01-29T18:23:47.625Z,1.70
2018-01-29T18:26:15.099Z,4.17
2018-01-29T18:28:42.583Z,14.70
2018-01-29T18:31:10.096Z,15.63
2018-01-29T18:33:37.550Z,7.83
2018-01-29T18:36:05.010Z,8.20
2018-01-29T18:38:32.481Z,6.63
2018-01-29T18:40:59.937Z,4.70
2018-01-29T18:43:27.387Z,7.73
2018-01-29T18:45:54.836Z,8.73
2018-01-29T18:48:22.334Z,22.40
2018-01-29T18:50:50.550Z,22.93
2018-01-29T18:53:18.043Z,18.23
2018-01-29T18:55:45.488Z,20.20
2018-01-29T18:58:13.005Z,17.23
2018-01-29T19:00:40.469Z,15.50
2018-01-29T19:03:07.988Z,13.60
2018-01-29T19:05:36.249Z,17.60
2018-01-29T19:08:03.754Z,16.10
2018-01-29T19:10:31.191Z,15.40
2018-01-29T19:12:58.708Z,10.60
2018-01-29T19:15:26.150Z,13.93
2018-01-29T19:17:53.610Z,15.53
2018-01-29T19:20:21.117Z,15.40
2018-01-29T19:22:49.363Z,18.33
2018-01-29T19:25:16.867Z,16.37
2018-01-29T19:27:44.339Z,15.63
2018-01-29T19:30:11.841Z,11.77
2018-01-29T19:32:39.286Z,9.70
2018-01-29T19:35:06.749Z,5.97
2018-01-29T19:37:34.202Z,6.20
2018-01-29T19:40:01.703Z,5.83
2018-01-29T19:42:29.251Z,3.57
2018-01-29T19:44:56.718Z,3.23
2018-01-29T19:47:24.217Z,3.20
2018-01-29T19:49:52.143Z,3.70
2018-01-29T19:52:19.656Z,5.50
2018-01-29T19:54:47.147Z,7.57
2018-01-29T19:57:15.357Z,15.90
2018-01-29T19:59:42.858Z,30.40
2018-01-29T20:02:10.309Z,18.60
2018-01-29T20:04:38.540Z,46.10
2018-01-29T20:07:06.054Z,16.27
2018-01-29T20:09:34.350Z,44.63
2018-01-29T20:12:01.804Z,22.33
2018-01-29T20:14:29.254Z,10.83
2018-01-29T20:16:56.753Z,5.73
2018-01-29T20:19:24.208Z,13.60
2018-01-29T20:21:51.722Z,25.23
2018-01-29T20:24:19.225Z,26.80
2018-01-29T20:26:46.703Z,20.60
2018-01-29T20:29:14.229Z,10.70
2018-01-29T20:31:41.667Z,10.50
2018-01-29T20:34:09.134Z,8.00
2018-01-29T20:36:36.643Z,7.40
2018-01-29T20:39:04.090Z,6.50
2018-01-29T20:41:31.607Z,6.33
2018-01-29T20:43:59.121Z,8.37
2018-01-29T20:46:26.611Z,6.43
2018-01-29T20:48:54.145Z,8.10
2018-01-29T20:51:22.443Z,8.80
2018-01-29T20:53:49.965Z,8.07
2018-01-29T20:56:17.465Z,10.20
2018-01-29T20:58:44.971Z,11.10
2018-01-29T21:01:12.466Z,10.00
2018-01-29T21:03:39.963Z,10.60
2018-01-29T21:06:07.443Z,7.87
2018-01-29T21:08:34.959Z,6.57
2018-01-29T21:11:02.408Z,7.50
2018-01-29T21:13:29.922Z,8.43
2018-01-29T21:15:57.437Z,8.67
2018-01-29T21:18:24.937Z,7.40
2018-01-29T21:20:52.434Z,7.20
2018-01-29T21:23:19.916Z,6.20
2018-01-29T21:25:47.420Z,6.80
2018-01-29T21:28:14.875Z,7.37
2018-01-29T21:30:43.157Z,8.13
2018-01-29T21:33:11.423Z,8.93
2018-01-29T21:35:38.922Z,9.10
2018-01-29T21:38:06.423Z,8.27
2018-01-29T21:40:33.925Z,8.47
2018-01-29T21:43:01.366Z,8.60
2018-01-29T21:45:29.647Z,9.80
2018-01-29T21:47:57.921Z,9.90
2018-01-29T21:50:26.216Z,10.03
2018-01-29T21:52:54.446Z,9.50
2018-01-29T21:55:21.930Z,9.60
2018-01-29T21:57:50.820Z,9.73
2018-01-29T22:00:19.547Z,10.90
2018-01-29T22:02:46.977Z,11.03
2018-01-29T22:05:14.450Z,9.87
2018-01-29T22:07:41.983Z,10.90
2018-01-29T22:10:10.196Z,10.80
2018-01-29T22:12:37.695Z,11.17
2018-01-29T22:15:05.149Z,10.30
2018-01-29T22:17:33.406Z,11.73
2018-01-29T22:20:00.890Z,10.93
2018-01-29T22:22:29.269Z,11.10
2018-01-29T22:24:56.763Z,11.90
2018-01-29T22:27:24.257Z,9.83
2018-01-29T22:29:51.720Z,10.10
2018-01-29T22:32:19.228Z,12.27
2018-01-29T22:34:46.738Z,11.90
2018-01-29T22:37:14.236Z,10.90
2018-01-29T22:39:41.751Z,9.63
2018-01-29T22:42:09.205Z,10.27
2018-01-29T22:44:36.708Z,10.37
2018-01-29T22:47:04.172Z,10.43
2018-01-29T22:49:31.646Z,9.33
2018-01-29T22:51:59.875Z,11.03
2018-01-29T22:54:28.094Z,9.97
2018-01-29T22:56:55.564Z,10.07
2018-01-29T22:59:23.088Z,10.40
2018-01-29T23:01:50.534Z,9.93
2018-01-29T23:04:18.042Z,9.13
2018-01-29T23:06:45.534Z,9.70
2018-01-29T23:09:13.822Z,9.53
2018-01-29T23:11:42.049Z,9.53
2018-01-29T23:14:09.511Z,10.37
2018-01-29T23:16:36.974Z,9.70
2018-01-29T23:19:04.487Z,10.40
2018-01-29T23:21:32.714Z,9.70
2018-01-29T23:24:00.233Z,8.60
2018-01-29T23:26:27.720Z,9.10
2018-01-29T23:28:55.152Z,9.07
2018-01-29T23:31:22.624Z,8.67
2018-01-29T23:33:50.082Z,8.73
2018-01-29T23:36:17.546Z,8.50
2018-01-29T23:38:45.014Z,8.60
2018-01-29T23:41:12.460Z,8.37
2018-01-29T23:43:39.924Z,7.40
2018-01-29T23:46:07.368Z,7.30
2018-01-29T23:48:34.828Z,6.20
2018-01-29T23:51:02.309Z,7.40
2018-01-29T23:53:30.512Z,7.33
2018-01-29T23:55:57.961Z,6.93
2018-01-29T23:58:25.415Z,5.90
